Time;durP1;ratioP1;P1;durP2;ratioP2;P2;SDS_P1;SDS_P2;PMS_P1;PMS_P2;Temp;Humidity;BMP_temperature;BMP_pressure;BME280_temperature;BME280_humidity;BME280_pressure;Samples;Min_cycle;Max_cycle;Signal;HPM_P1;HPM_P2
2021/01/26 00:01:06;;;;;;;;;;;17.30;55.90;;;;;;5069460;28;19925;-54
2021/01/26 00:03:33;;;;;;;;;;;17.30;55.90;;;;;;5069459;28;19977;-51
2021/01/26 00:05:59;;;;;;;;;;;17.30;55.90;;;;;;5066345;28;19931;-55
2021/01/26 00:08:25;;;;;;;;;;;17.30;56.50;;;;;;5071963;28;20660;-53
2021/01/26 00:10:51;;;;;;;;;;;17.30;55.80;;;;;;5067925;28;19940;-52
2021/01/26 00:13:19;;;;;;;;;;;17.30;55.80;;;;;;5074936;28;19965;-54
2021/01/26 00:15:46;;;;;;;;;;;17.30;55.90;;;;;;5068900;28;19959;-52
2021/01/26 00:18:12;;;;;;;;;;;17.20;55.80;;;;;;5065622;28;19925;-52
2021/01/26 00:20:39;;;;;;;;;;;17.30;55.90;;;;;;5072331;28;19925;-52
2021/01/26 00:23:05;;;;;;;;;;;17.20;55.90;;;;;;5077685;28;19928;-52
2021/01/26 00:25:33;;;;;;;;;;;17.20;55.80;;;;;;5066308;28;19947;-52
2021/01/26 00:27:59;;;;;;;;;;;17.20;55.80;;;;;;5077190;28;20320;-52
2021/01/26 00:30:27;;;;;;;;;;;17.20;55.80;;;;;;5068529;28;20284;-53
2021/01/26 00:32:54;;;;;;;;;;;17.20;55.80;;;;;;5070895;28;20525;-53
2021/01/26 00:35:22;;;;;;;;;;;17.20;55.70;;;;;;5063306;28;19925;-53
2021/01/26 00:37:49;;;;;;;;;;;17.20;55.60;;;;;;5075997;28;19936;-53
2021/01/26 00:40:15;;;;;;;;;;;17.20;55.50;;;;;;5066117;28;19928;-53
2021/01/26 00:42:42;;;;;;;;;;;17.10;55.40;;;;;;5068882;28;19925;-52
2021/01/26 00:45:09;;;;;;;;;;;17.10;55.40;;;;;;5064816;28;20369;-52
2021/01/26 00:47:36;;;;;;;;;;;17.10;55.40;;;;;;5071240;28;19932;-52
2021/01/26 00:50:06;;;;;;;;;;;17.10;55.40;;;;;;5047535;28;20564;-52
2021/01/26 00:52:32;;;;;;;;;;;17.10;55.40;;;;;;5070283;28;19924;-52
2021/01/26 00:54:58;;;;;;;;;;;17.10;55.40;;;;;;5066650;28;20284;-52
2021/01/26 00:57:25;;;;;;;;;;;17.10;55.50;;;;;;5066774;28;19928;-52
2021/01/26 00:59:51;;;;;;;;;;;17.10;55.40;;;;;;5063355;28;20377;-53
2021/01/26 01:02:17;;;;;;;;;;;17.10;55.40;;;;;;5066378;28;19924;-53
2021/01/26 01:04:45;;;;;;;;;;;17.10;55.40;;;;;;5068534;28;19959;-53
2021/01/26 01:07:12;;;;;;;;;;;17.00;55.60;;;;;;5072697;28;19924;-52
2021/01/26 01:09:38;;;;;;;;;;;17.00;55.30;;;;;;5062452;28;19932;-52
2021/01/26 01:12:04;;;;;;;;;;;17.00;55.30;;;;;;5064884;28;20357;-52
2021/01/26 01:14:30;;;;;;;;;;;17.10;55.30;;;;;;5069355;28;19924;-52
2021/01/26 01:16:57;;;;;;;;;;;17.00;55.30;;;;;;5067963;28;19931;-54
2021/01/26 01:19:23;;;;;;;;;;;17.00;55.30;;;;;;5074218;28;19925;-52
2021/01/26 01:21:49;;;;;;;;;;;17.00;55.20;;;;;;5068864;28;19925;-53
2021/01/26 01:24:16;;;;;;;;;;;17.00;55.20;;;;;;5068587;28;20396;-52
2021/01/26 01:26:42;;;;;;;;;;;17.00;55.30;;;;;;5062452;28;19978;-52
2021/01/26 01:29:09;;;;;;;;;;;17.00;55.30;;;;;;5070538;28;19931;-54
2021/01/26 01:31:35;;;;;;;;;;;17.00;55.40;;;;;;5065047;28;19931;-54
2021/01/26 01:34:02;;;;;;;;;;;16.90;55.20;;;;;;5071014;28;19948;-53
2021/01/26 01:36:34;;;;;;;;;;;17.00;55.20;;;;;;5058158;28;19925;-54
2021/01/26 01:39:00;;;;;;;;;;;17.00;55.30;;;;;;5070423;28;19932;-54
2021/01/26 01:41:29;;;;;;;;;;;16.90;55.10;;;;;;5061118;28;19924;-54
2021/01/26 01:43:55;;;;;;;;;;;16.90;55.10;;;;;;5065633;28;19928;-52
2021/01/26 01:46:22;;;;;;;;;;;16.90;55.10;;;;;;5067494;28;19931;-52
2021/01/26 01:48:48;;;;;;;;;;;16.90;55.00;;;;;;5066940;28;19968;-55
2021/01/26 01:51:20;;;;;;;;;;;16.90;55.60;;;;;;5074486;28;19943;-53
2021/01/26 01:53:55;;;;;;;;;;;16.90;54.80;;;;;;5059133;28;20399;-52
2021/01/26 01:56:47;;;;;;;;;;;16.90;54.70;;;;;;5070407;28;19928;-52
2021/01/26 01:59:16;;;;;;;;;;;16.90;54.70;;;;;;5046853;28;19931;-51
2021/01/26 02:01:42;;;;;;;;;;;16.90;54.90;;;;;;5071116;28;19925;-54
2021/01/26 02:04:11;;;;;;;;;;;16.80;54.80;;;;;;5062437;28;19924;-51
2021/01/26 02:06:38;;;;;;;;;;;16.80;54.90;;;;;;5066679;28;19932;-52
2021/01/26 02:09:04;;;;;;;;;;;16.90;54.90;;;;;;5061923;28;19931;-53
2021/01/26 02:11:30;;;;;;;;;;;16.80;55.00;;;;;;5072892;28;19924;-51
2021/01/26 02:13:56;;;;;;;;;;;16.80;54.90;;;;;;5060318;28;20438;-54
2021/01/26 02:16:29;;;;;;;;;;;16.80;54.90;;;;;;5069923;28;19928;-53
2021/01/26 02:19:00;;;;;;;;;;;16.80;54.90;;;;;;5064292;28;19935;-52
2021/01/26 02:21:54;;;;;;;;;;;16.80;55.00;;;;;;5070060;28;20644;-54
2021/01/26 02:24:23;;;;;;;;;;;16.80;55.00;;;;;;5065942;28;19928;-52
2021/01/26 02:27:03;;;;;;;;;;;16.80;55.10;;;;;;5070933;28;19924;-51
2021/01/26 02:29:47;;;;;;;;;;;16.80;55.10;;;;;;5064710;28;20387;-54
2021/01/26 02:32:22;;;;;;;;;;;16.80;55.10;;;;;;5064086;28;19929;-51
2021/01/26 02:35:07;;;;;;;;;;;16.70;55.10;;;;;;5062442;28;19935;-52
2021/01/26 02:37:52;;;;;;;;;;;16.80;55.10;;;;;;5074711;28;19925;-54
2021/01/26 02:40:21;;;;;;;;;;;16.70;55.00;;;;;;5059777;28;20252;-54
2021/01/26 02:42:57;;;;;;;;;;;16.80;54.90;;;;;;5069534;28;19935;-51
2021/01/26 02:45:28;;;;;;;;;;;16.80;54.90;;;;;;5063251;28;19931;-54
2021/01/26 02:48:03;;;;;;;;;;;16.70;55.50;;;;;;5071847;28;19967;-53
2021/01/26 02:50:42;;;;;;;;;;;16.70;54.90;;;;;;5059008;28;19978;-54
2021/01/26 02:53:14;;;;;;;;;;;16.70;54.80;;;;;;5070680;28;19931;-54
2021/01/26 02:55:51;;;;;;;;;;;16.70;54.70;;;;;;5063296;28;19928;-53
2021/01/26 02:58:21;;;;;;;;;;;16.70;54.70;;;;;;5070493;28;19931;-53
2021/01/26 03:00:50;;;;;;;;;;;16.70;54.70;;;;;;5062181;28;19931;-54
2021/01/26 03:03:23;;;;;;;;;;;16.80;54.80;;;;;;5067734;28;19940;-54
2021/01/26 03:05:54;;;;;;;;;;;16.70;54.80;;;;;;5062808;28;19935;-54
2021/01/26 03:08:25;;;;;;;;;;;16.70;54.80;;;;;;5068759;28;19932;-54
2021/01/26 03:10:56;;;;;;;;;;;16.70;54.70;;;;;;5060808;28;20288;-53
2021/01/26 03:13:25;;;;;;;;;;;16.70;54.70;;;;;;5069400;28;19924;-53
2021/01/26 03:15:55;;;;;;;;;;;16.70;54.80;;;;;;5071388;28;20557;-54
2021/01/26 03:18:27;;;;;;;;;;;16.70;54.90;;;;;;5067979;28;19931;-53
2021/01/26 03:20:55;;;;;;;;;;;16.70;54.90;;;;;;5065709;28;20288;-53
2021/01/26 03:23:26;;;;;;;;;;;16.70;54.80;;;;;;5071636;28;19931;-53
2021/01/26 03:25:58;;;;;;;;;;;16.60;54.80;;;;;;5061477;28;19924;-54
2021/01/26 03:28:24;;;;;;;;;;;16.60;54.90;;;;;;5072923;28;19936;-53
2021/01/26 03:30:52;;;;;;;;;;;16.70;54.80;;;;;;5063221;28;19925;-54
2021/01/26 03:33:23;;;;;;;;;;;16.70;54.80;;;;;;5070434;28;19940;-54
2021/01/26 03:35:50;;;;;;;;;;;16.60;54.70;;;;;;5064883;28;20455;-53
2021/01/26 03:38:23;;;;;;;;;;;16.60;54.80;;;;;;5072790;28;20367;-53
2021/01/26 03:40:51;;;;;;;;;;;16.60;54.90;;;;;;5071588;28;19946;-53
2021/01/26 03:43:17;;;;;;;;;;;16.60;55.00;;;;;;5071329;28;19943;-53
2021/01/26 03:45:45;;;;;;;;;;;16.60;55.50;;;;;;5080916;28;19925;-52
2021/01/26 03:48:35;;;;;;;;;;;16.60;54.90;;;;;;5067219;28;19924;-52
2021/01/26 03:51:05;;;;;;;;;;;16.60;54.80;;;;;;5069900;28;19924;-52
2021/01/26 03:53:37;;;;;;;;;;;16.60;54.70;;;;;;5064296;28;19925;-53
2021/01/26 03:56:13;;;;;;;;;;;16.60;54.70;;;;;;5072894;28;19931;-53
2021/01/26 03:58:43;;;;;;;;;;;16.60;54.70;;;;;;5065803;28;20265;-52
2021/01/26 04:01:15;;;;;;;;;;;16.60;54.60;;;;;;5072843;28;19924;-53
2021/01/26 04:03:57;;;;;;;;;;;16.60;54.70;;;;;;5065592;28;19924;-53
2021/01/26 04:06:42;;;;;;;;;;;16.60;54.60;;;;;;5053182;28;19931;-53
2021/01/26 04:09:13;;;;;;;;;;;16.60;54.50;;;;;;5064371;28;19936;-54
2021/01/26 04:11:45;;;;;;;;;;;16.50;54.50;;;;;;5070063;28;19931;-53
2021/01/26 04:14:14;;;;;;;;;;;16.50;54.50;;;;;;5066561;28;19925;-52
2021/01/26 04:16:47;;;;;;;;;;;16.50;54.50;;;;;;5077540;28;19935;-54
2021/01/26 04:19:15;;;;;;;;;;;16.60;54.50;;;;;;5060748;28;19960;-52
2021/01/26 04:21:41;;;;;;;;;;;16.50;54.40;;;;;;5077164;28;19933;-54
2021/01/26 04:24:08;;;;;;;;;;;16.60;54.50;;;;;;5065073;28;19925;-53
2021/01/26 04:26:34;;;;;;;;;;;16.50;54.40;;;;;;5071610;28;19925;-54
2021/01/26 04:29:01;;;;;;;;;;;16.50;54.50;;;;;;5068254;28;20288;-51
2021/01/26 04:31:27;;;;;;;;;;;16.50;54.40;;;;;;5073194;28;19924;-53
2021/01/26 04:33:53;;;;;;;;;;;16.50;54.40;;;;;;5062096;28;20281;-51
2021/01/26 04:36:21;;;;;;;;;;;16.50;54.40;;;;;;5072115;28;19935;-54
2021/01/26 04:38:48;;;;;;;;;;;16.50;54.40;;;;;;5066376;28;19925;-53
2021/01/26 04:41:28;;;;;;;;;;;16.50;54.30;;;;;;5077120;28;19924;-52
2021/01/26 04:44:13;;;;;;;;;;;16.50;54.30;;;;;;5064324;28;19959;-52
2021/01/26 04:46:59;;;;;;;;;;;16.50;54.30;;;;;;5062912;28;19931;-53
2021/01/26 04:49:37;;;;;;;;;;;16.50;54.40;;;;;;5064989;28;19924;-53
2021/01/26 04:52:22;;;;;;;;;;;16.50;54.40;;;;;;5072420;28;19932;-53
2021/01/26 04:55:05;;;;;;;;;;;16.50;54.40;;;;;;5069620;28;19924;-55
2021/01/26 04:57:45;;;;;;;;;;;16.50;54.40;;;;;;5068477;28;19932;-53
2021/01/26 05:00:13;;;;;;;;;;;16.50;54.40;;;;;;5071289;28;19931;-54
2021/01/26 05:03:03;;;;;;;;;;;16.50;54.30;;;;;;5069154;28;19931;-54
2021/01/26 05:05:30;;;;;;;;;;;16.50;54.30;;;;;;5060922;28;19924;-54
2021/01/26 05:07:59;;;;;;;;;;;16.40;54.30;;;;;;5070406;28;21610;-54
2021/01/26 05:10:36;;;;;;;;;;;16.40;54.30;;;;;;5061840;28;19934;-54
2021/01/26 05:13:02;;;;;;;;;;;16.40;54.20;;;;;;5068031;28;19936;-55
2021/01/26 05:15:30;;;;;;;;;;;16.40;54.20;;;;;;5064683;28;20430;-54
2021/01/26 05:17:59;;;;;;;;;;;16.40;54.30;;;;;;5069811;28;20403;-55
2021/01/26 05:20:27;;;;;;;;;;;16.40;54.20;;;;;;5069421;28;20302;-52
2021/01/26 05:22:56;;;;;;;;;;;16.40;54.20;;;;;;5073593;28;19924;-54
2021/01/26 05:25:23;;;;;;;;;;;16.40;54.30;;;;;;5072530;28;19931;-51
2021/01/26 05:27:50;;;;;;;;;;;16.40;54.30;;;;;;5068353;28;19932;-55
2021/01/26 05:30:26;;;;;;;;;;;16.40;54.30;;;;;;5066697;28;19939;-52
2021/01/26 05:32:53;;;;;;;;;;;16.40;54.30;;;;;;5067717;28;19924;-53
2021/01/26 05:35:19;;;;;;;;;;;16.40;54.30;;;;;;5067717;28;19928;-53
2021/01/26 05:37:47;;;;;;;;;;;16.40;54.30;;;;;;5069506;28;20535;-53
2021/01/26 05:40:19;;;;;;;;;;;16.40;54.30;;;;;;5071696;28;19930;-53
2021/01/26 05:42:48;;;;;;;;;;;16.40;54.30;;;;;;5064595;28;19932;-52
2021/01/26 05:45:30;;;;;;;;;;;16.30;54.30;;;;;;5069931;28;19924;-52
2021/01/26 05:48:01;;;;;;;;;;;16.40;54.30;;;;;;5064012;28;19924;-52
2021/01/26 05:50:29;;;;;;;;;;;16.40;54.30;;;;;;5075644;28;19942;-54
2021/01/26 05:53:03;;;;;;;;;;;16.40;54.30;;;;;;5063891;28;20014;-53
2021/01/26 05:55:31;;;;;;;;;;;16.30;54.20;;;;;;5076623;28;20293;-53
2021/01/26 05:58:05;;;;;;;;;;;16.40;54.20;;;;;;5063331;28;20292;-52
2021/01/26 06:00:31;;;;;;;;;;;16.40;54.30;;;;;;5076302;28;19925;-52
2021/01/26 06:03:05;;;;;;;;;;;16.30;54.30;;;;;;5061876;28;19940;-53
2021/01/26 06:05:31;;;;;;;;;;;16.30;54.20;;;;;;5050931;28;19924;-55
2021/01/26 06:08:04;;;;;;;;;;;16.40;54.20;;;;;;5059183;28;19932;-53
2021/01/26 06:10:30;;;;;;;;;;;16.30;54.20;;;;;;5068814;28;19925;-53
2021/01/26 06:12:56;;;;;;;;;;;16.40;54.30;;;;;;5063779;28;19932;-52
2021/01/26 06:15:24;;;;;;;;;;;16.30;54.30;;;;;;5073083;28;19928;-52
2021/01/26 06:17:50;;;;;;;;;;;16.30;54.30;;;;;;5062155;28;19932;-52
2021/01/26 06:20:19;;;;;;;;;;;16.30;54.30;;;;;;5074241;28;19925;-53
2021/01/26 06:22:45;;;;;;;;;;;16.30;54.30;;;;;;5061852;28;20732;-52
2021/01/26 06:25:29;;;;;;;;;;;16.30;54.20;;;;;;5074069;28;19954;-54
2021/01/26 06:28:08;;;;;;;;;;;16.30;54.20;;;;;;5060799;28;19928;-53
2021/01/26 06:30:40;;;;;;;;;;;16.30;54.20;;;;;;5071245;28;19924;-54
2021/01/26 06:33:19;;;;;;;;;;;16.30;54.10;;;;;;5062960;28;19931;-54
2021/01/26 06:35:45;;;;;;;;;;;16.30;54.80;;;;;;5068171;28;20915;-53
2021/01/26 06:38:20;;;;;;;;;;;16.30;54.30;;;;;;5061592;28;19929;-51
2021/01/26 06:40:52;;;;;;;;;;;16.30;54.30;;;;;;5066258;28;19925;-53
2021/01/26 06:43:30;;;;;;;;;;;16.30;54.30;;;;;;5063197;28;19935;-51
2021/01/26 06:46:06;;;;;;;;;;;16.30;54.30;;;;;;5069308;28;19931;-51
2021/01/26 06:48:51;;;;;;;;;;;16.30;54.40;;;;;;5058894;28;19932;-54
2021/01/26 06:51:39;;;;;;;;;;;16.30;54.30;;;;;;5069351;28;20385;-52
2021/01/26 06:54:20;;;;;;;;;;;16.30;54.40;;;;;;5061184;28;19932;-53
2021/01/26 06:57:05;;;;;;;;;;;16.30;54.40;;;;;;5065487;28;19932;-53
2021/01/26 06:59:42;;;;;;;;;;;16.30;54.30;;;;;;5065565;28;19924;-53
2021/01/26 07:02:08;;;;;;;;;;;16.30;54.30;;;;;;5067336;28;19931;-55
2021/01/26 07:04:34;;;;;;;;;;;16.30;54.30;;;;;;5065562;28;20396;-52
2021/01/26 07:07:19;;;;;;;;;;;16.30;54.30;;;;;;5065159;28;19936;-52
2021/01/26 07:09:58;;;;;;;;;;;16.30;54.30;;;;;;5066819;28;19928;-53
2021/01/26 07:12:36;;;;;;;;;;;16.30;54.30;;;;;;5068731;28;19932;-57
2021/01/26 07:15:28;;;;;;;;;;;16.30;54.30;;;;;;5061449;28;19952;-56
2021/01/26 07:18:21;;;;;;;;;;;16.30;54.20;;;;;;5067206;28;19925;-57
2021/01/26 07:20:58;;;;;;;;;;;16.30;54.10;;;;;;5056026;28;19970;-55
2021/01/26 07:23:37;;;;;;;;;;;16.30;54.10;;;;;;5049190;28;20307;-57
2021/01/26 07:26:14;;;;;;;;;;;16.30;54.20;;;;;;5068070;28;19923;-56
2021/01/26 07:29:03;;;;;;;;;;;16.30;54.30;;;;;;5064290;28;20299;-59
2021/01/26 07:31:50;;;;;;;;;;;16.30;54.20;;;;;;5071842;28;20415;-55
2021/01/26 07:34:25;;;;;;;;;;;16.30;54.20;;;;;;5051420;28;19931;-53
2021/01/26 07:36:55;;;;;;;;;;;16.30;54.20;;;;;;5061195;28;20017;-53
2021/01/26 07:39:26;;;;;;;;;;;16.30;54.20;;;;;;5056804;28;20494;-53
2021/01/26 07:41:55;;;;;;;;;;;16.30;54.30;;;;;;5060454;28;19956;-52
2021/01/26 07:44:38;;;;;;;;;;;16.30;54.20;;;;;;5059429;28;19932;-53
2021/01/26 07:47:25;;;;;;;;;;;16.30;54.40;;;;;;5050623;28;20377;-53
2021/01/26 07:50:01;;;;;;;;;;;16.70;55.40;;;;;;5059255;28;19930;-56
2021/01/26 07:52:29;;;;;;;;;;;17.30;53.70;;;;;;5064444;28;20359;-52
2021/01/26 07:55:08;;;;;;;;;;;17.80;53.20;;;;;;5061215;28;19929;-55
2021/01/26 07:57:37;;;;;;;;;;;18.00;53.00;;;;;;5061214;28;20326;-55
2021/01/26 08:00:04;;;;;;;;;;;18.40;53.90;;;;;;5062502;28;19932;-56
2021/01/26 08:02:32;;;;;;;;;;;18.80;53.00;;;;;;5068217;28;19931;-55
2021/01/26 08:05:07;;;;;;;;;;;19.50;51.70;;;;;;5058240;28;19951;-55
2021/01/26 08:07:33;;;;;;;;;;;20.00;50.60;;;;;;5064270;28;20458;-60
2021/01/26 08:10:01;;;;;;;;;;;20.40;49.70;;;;;;5056500;28;19952;-62
2021/01/26 08:12:30;;;;;;;;;;;20.70;49.10;;;;;;5064522;28;19932;-62
2021/01/26 08:15:09;;;;;;;;;;;20.80;48.80;;;;;;5062626;28;19928;-63
2021/01/26 08:17:36;;;;;;;;;;;21.10;48.50;;;;;;5065267;28;19939;-60
2021/01/26 08:20:08;;;;;;;;;;;21.30;48.10;;;;;;5063298;28;20349;-59
2021/01/26 08:22:36;;;;;;;;;;;21.50;47.70;;;;;;5070313;28;19932;-60
2021/01/26 08:25:03;;;;;;;;;;;21.60;47.30;;;;;;5060357;28;19932;-60
2021/01/26 08:27:32;;;;;;;;;;;21.70;47.30;;;;;;5066580;28;19936;-61
2021/01/26 08:30:00;;;;;;;;;;;21.80;47.00;;;;;;5064853;28;19993;-59
2021/01/26 08:32:26;;;;;;;;;;;22.00;46.60;;;;;;5062887;28;19943;-61
2021/01/26 08:34:57;;;;;;;;;;;22.20;46.40;;;;;;5067481;28;19932;-60
2021/01/26 08:37:25;;;;;;;;;;;22.30;46.00;;;;;;5060857;28;19932;-56
2021/01/26 08:39:52;;;;;;;;;;;22.50;45.70;;;;;;5066969;28;19933;-57
2021/01/26 08:42:37;;;;;;;;;;;22.50;45.60;;;;;;5062898;28;19940;-56
2021/01/26 08:45:04;;;;;;;;;;;22.60;45.40;;;;;;5064379;28;20427;-56
2021/01/26 08:47:41;;;;;;;;;;;22.70;45.50;;;;;;5059639;28;19924;-63
2021/01/26 08:50:14;;;;;;;;;;;22.80;45.10;;;;;;5068725;28;19985;-61
2021/01/26 08:52:40;;;;;;;;;;;22.90;45.70;;;;;;5060677;28;19956;-61
2021/01/26 08:55:06;;;;;;;;;;;23.00;45.10;;;;;;5069248;28;19935;-63
2021/01/26 08:57:33;;;;;;;;;;;23.00;44.90;;;;;;5066048;28;19933;-64
2021/01/26 09:00:12;;;;;;;;;;;23.20;44.50;;;;;;5061703;28;19943;-63
2021/01/26 09:02:40;;;;;;;;;;;23.20;44.40;;;;;;5059534;28;19931;-62
2021/01/26 09:05:08;;;;;;;;;;;23.30;44.30;;;;;;5065153;28;19932;-61
2021/01/26 09:07:45;;;;;;;;;;;23.40;44.20;;;;;;5061574;28;19928;-62
2021/01/26 09:10:30;;;;;;;;;;;23.50;44.30;;;;;;5063091;28;19924;-62
2021/01/26 09:13:15;;;;;;;;;;;23.50;44.10;;;;;;5061314;28;20411;-65
2021/01/26 09:15:46;;;;;;;;;;;23.60;44.10;;;;;;5063014;28;19947;-63
2021/01/26 09:18:17;;;;;;;;;;;23.70;44.10;;;;;;5059182;28;19933;-64
2021/01/26 09:20:43;;;;;;;;;;;23.70;44.00;;;;;;5067938;28;19951;-63
2021/01/26 09:23:11;;;;;;;;;;;23.80;43.70;;;;;;5064901;28;19924;-62
2021/01/26 09:25:46;;;;;;;;;;;23.80;43.80;;;;;;5063077;28;19936;-59
2021/01/26 09:28:13;;;;;;;;;;;23.80;43.10;;;;;;5055298;28;19924;-59
2021/01/26 09:30:41;;;;;;;;;;;23.10;42.10;;;;;;5041508;28;19939;-59
2021/01/26 09:33:07;;;;;;;;;;;22.80;42.80;;;;;;5047159;28;19932;-65
2021/01/26 09:35:35;;;;;;;;;;;22.70;43.50;;;;;;5040570;28;20650;-62
2021/01/26 09:38:10;;;;;;;;;;;23.30;43.50;;;;;;5048514;28;20382;-62
2021/01/26 09:40:39;;;;;;;;;;;23.70;43.30;;;;;;5031885;28;19928;-62
2021/01/26 09:43:14;;;;;;;;;;;23.90;42.90;;;;;;5042843;28;19960;-62
2021/01/26 09:45:41;;;;;;;;;;;24.10;42.90;;;;;;5041286;28;19933;-62
2021/01/26 09:48:07;;;;;;;;;;;24.10;42.90;;;;;;5044332;28;19932;-63
2021/01/26 09:50:34;;;;;;;;;;;24.30;42.90;;;;;;5038125;28;19986;-64
2021/01/26 09:53:03;;;;;;;;;;;24.30;42.80;;;;;;5039897;28;19936;-62
2021/01/26 09:55:34;;;;;;;;;;;24.40;42.80;;;;;;5020454;28;19967;-57
2021/01/26 09:58:01;;;;;;;;;;;24.50;42.60;;;;;;5041345;28;19930;-56
2021/01/26 10:00:28;;;;;;;;;;;24.60;42.60;;;;;;5038610;28;19932;-56
2021/01/26 10:02:56;;;;;;;;;;;24.70;42.50;;;;;;5044473;28;19947;-58
2021/01/26 10:05:24;;;;;;;;;;;24.70;42.40;;;;;;5038465;28;19944;-58
2021/01/26 10:08:03;;;;;;;;;;;24.80;42.40;;;;;;5042771;28;19925;-58
2021/01/26 10:10:30;;;;;;;;;;;24.90;42.30;;;;;;5036231;28;19925;-55
2021/01/26 10:12:56;;;;;;;;;;;25.00;42.10;;;;;;5043701;28;19928;-58
2021/01/26 10:15:23;;;;;;;;;;;25.00;42.00;;;;;;5038303;28;19962;-58
2021/01/26 10:17:55;;;;;;;;;;;25.00;42.10;;;;;;5040526;28;19933;-58
2021/01/26 10:20:23;;;;;;;;;;;25.10;42.10;;;;;;5046876;28;19924;-57
2021/01/26 10:22:50;;;;;;;;;;;25.20;42.10;;;;;;5043902;28;19925;-57
2021/01/26 10:25:16;;;;;;;;;;;25.20;42.00;;;;;;5047782;28;19971;-56
2021/01/26 10:27:42;;;;;;;;;;;25.30;42.00;;;;;;5037108;28;19956;-53
2021/01/26 10:30:15;;;;;;;;;;;25.40;41.70;;;;;;5045953;28;19925;-56
2021/01/26 10:32:45;;;;;;;;;;;24.60;41.00;;;;;;5037070;28;19932;-55
2021/01/26 10:35:23;;;;;;;;;;;25.00;41.30;;;;;;5044616;28;20400;-56
2021/01/26 10:37:49;;;;;;;;;;;25.20;41.10;;;;;;5033727;28;19924;-57
2021/01/26 10:40:18;;;;;;;;;;;25.40;41.20;;;;;;5046218;28;20062;-57
2021/01/26 10:42:54;;;;;;;;;;;25.50;41.20;;;;;;5035017;28;19925;-56
2021/01/26 10:45:32;;;;;;;;;;;25.60;41.20;;;;;;5043138;28;19939;-59
2021/01/26 10:48:05;;;;;;;;;;;25.70;41.10;;;;;;5035451;28;19998;-55
2021/01/26 10:50:32;;;;;;;;;;;25.70;41.30;;;;;;5043138;28;20389;-54
2021/01/26 10:52:58;;;;;;;;;;;25.90;41.10;;;;;;5039212;28;19951;-55
2021/01/26 10:55:29;;;;;;;;;;;25.90;40.80;;;;;;5043910;28;20596;-55
2021/01/26 10:57:56;;;;;;;;;;;25.80;40.60;;;;;;5041697;28;19932;-57
2021/01/26 11:00:25;;;;;;;;;;;25.90;40.50;;;;;;5045226;28;19925;-59
2021/01/26 11:02:55;;;;;;;;;;;25.90;40.40;;;;;;5039472;28;19928;-59
2021/01/26 11:05:23;;;;;;;;;;;26.00;40.40;;;;;;5037932;28;19929;-59
2021/01/26 11:07:49;;;;;;;;;;;26.00;40.40;;;;;;5034199;28;19925;-59
2021/01/26 11:10:16;;;;;;;;;;;26.10;40.30;;;;;;5043816;28;19933;-61
2021/01/26 11:12:43;;;;;;;;;;;26.00;40.40;;;;;;5040085;28;20412;-60
2021/01/26 11:15:14;;;;;;;;;;;26.10;40.40;;;;;;5044719;28;19931;-60
2021/01/26 11:17:41;;;;;;;;;;;26.20;40.50;;;;;;5040296;28;19929;-61
2021/01/26 11:20:08;;;;;;;;;;;26.20;40.50;;;;;;5038756;28;20710;-60
2021/01/26 11:22:35;;;;;;;;;;;26.30;40.60;;;;;;5045181;28;19932;-59
2021/01/26 11:25:04;;;;;;;;;;;26.20;40.40;;;;;;5039088;28;19993;-59
2021/01/26 11:27:30;;;;;;;;;;;26.20;40.20;;;;;;5039366;28;19925;-60
2021/01/26 11:29:57;;;;;;;;;;;26.30;40.20;;;;;;5034757;28;19950;-62
2021/01/26 11:32:23;;;;;;;;;;;26.30;40.20;;;;;;5038176;28;19925;-58
2021/01/26 11:34:50;;;;;;;;;;;26.40;40.20;;;;;;5040919;28;19924;-58
2021/01/26 11:37:16;;;;;;;;;;;26.40;40.20;;;;;;5048749;28;19932;-57
2021/01/26 11:39:42;;;;;;;;;;;26.40;40.10;;;;;;5041399;28;19924;-57
2021/01/26 11:42:09;;;;;;;;;;;26.40;40.00;;;;;;5046191;28;19932;-58
2021/01/26 11:44:35;;;;;;;;;;;26.50;40.00;;;;;;5042581;28;19925;-54
2021/01/26 11:47:02;;;;;;;;;;;26.50;39.80;;;;;;5042892;28;19949;-54
2021/01/26 11:49:28;;;;;;;;;;;26.40;39.30;;;;;;5038346;28;19924;-54
2021/01/26 11:51:54;;;;;;;;;;;26.30;39.00;;;;;;5048078;28;20389;-53
2021/01/26 11:54:21;;;;;;;;;;;26.20;38.90;;;;;;5047703;28;19929;-53
2021/01/26 11:56:47;;;;;;;;;;;26.10;38.70;;;;;;5046137;28;19939;-55
2021/01/26 11:59:13;;;;;;;;;;;26.20;38.70;;;;;;5042943;28;19935;-54
2021/01/26 12:01:40;;;;;;;;;;;26.20;38.70;;;;;;5047823;28;19933;-55
2021/01/26 12:04:10;;;;;;;;;;;26.10;38.60;;;;;;5049353;28;19924;-54
2021/01/26 12:06:36;;;;;;;;;;;26.10;38.50;;;;;;5039924;28;21184;-54
2021/01/26 12:09:03;;;;;;;;;;;26.10;38.60;;;;;;5049639;28;20265;-54
2021/01/26 12:11:30;;;;;;;;;;;26.10;38.70;;;;;;5039782;28;19925;-54
2021/01/26 12:13:58;;;;;;;;;;;26.00;38.70;;;;;;5049776;28;19924;-55
2021/01/26 12:16:24;;;;;;;;;;;26.00;38.60;;;;;;5044338;28;19976;-55
2021/01/26 12:18:52;;;;;;;;;;;26.00;38.70;;;;;;5051337;28;19929;-56
2021/01/26 12:21:18;;;;;;;;;;;26.00;38.70;;;;;;5044449;28;19932;-54
2021/01/26 12:23:48;;;;;;;;;;;25.90;38.60;;;;;;5041795;28;19932;-54
2021/01/26 12:26:18;;;;;;;;;;;25.90;38.70;;;;;;5044762;28;19931;-52
2021/01/26 12:28:44;;;;;;;;;;;25.90;38.60;;;;;;5045895;28;20216;-54
2021/01/26 12:31:11;;;;;;;;;;;25.90;38.70;;;;;;5043384;28;19933;-52
2021/01/26 12:33:37;;;;;;;;;;;25.90;38.70;;;;;;5046859;28;19929;-53
2021/01/26 12:36:03;;;;;;;;;;;25.90;38.60;;;;;;5037202;28;19924;-61
2021/01/26 12:38:31;;;;;;;;;;;26.00;39.30;;;;;;5042854;28;20331;-62
2021/01/26 12:40:58;;;;;;;;;;;26.20;39.40;;;;;;5039972;28;20278;-60
2021/01/26 12:43:24;;;;;;;;;;;26.40;39.60;;;;;;5044070;28;19932;-63
2021/01/26 12:45:51;;;;;;;;;;;26.50;39.60;;;;;;5037635;28;19931;-62
2021/01/26 12:48:17;;;;;;;;;;;26.60;39.70;;;;;;5039253;28;19935;-62
2021/01/26 12:50:46;;;;;;;;;;;26.70;39.60;;;;;;5045763;28;19924;-62
2021/01/26 12:53:13;;;;;;;;;;;26.80;39.70;;;;;;5041101;28;19937;-62
2021/01/26 12:55:39;;;;;;;;;;;26.90;39.70;;;;;;5048781;28;19936;-61
2021/01/26 12:58:08;;;;;;;;;;;26.90;39.70;;;;;;5040167;28;19932;-61
2021/01/26 13:00:35;;;;;;;;;;;26.90;39.60;;;;;;5046380;28;19931;-62
2021/01/26 13:03:01;;;;;;;;;;;27.00;39.60;;;;;;5043286;28;19929;-62
2021/01/26 13:05:29;;;;;;;;;;;27.10;39.50;;;;;;5045179;28;19924;-63
2021/01/26 13:07:56;;;;;;;;;;;27.10;39.50;;;;;;5040268;28;20618;-62
2021/01/26 13:10:22;;;;;;;;;;;27.20;39.70;;;;;;5046229;28;19933;-62
2021/01/26 13:12:49;;;;;;;;;;;27.30;39.70;;;;;;5043351;28;19924;-61
2021/01/26 13:15:17;;;;;;;;;;;27.30;39.40;;;;;;5047826;28;20255;-55
2021/01/26 13:17:43;;;;;;;;;;;27.40;39.40;;;;;;5042264;28;20297;-56
2021/01/26 13:20:10;;;;;;;;;;;27.50;39.50;;;;;;5048602;28;19971;-56
2021/01/26 13:22:38;;;;;;;;;;;27.50;39.50;;;;;;5043766;28;19947;-56
2021/01/26 13:25:06;;;;;;;;;;;27.60;39.60;;;;;;5046693;28;20402;-62
2021/01/26 13:27:32;;;;;;;;;;;27.50;39.20;;;;;;5047723;28;19924;-63
2021/01/26 13:29:58;;;;;;;;;;;26.90;40.80;;;;;;5044789;28;19935;-62
2021/01/26 13:32:24;;;;;;;;;;;26.40;41.10;;;;;;5049458;28;19925;-62
2021/01/26 13:34:51;;;;;;;;;;;26.10;42.30;;;;;;5040371;28;20404;-64
2021/01/26 13:37:17;;;;;;;;;;;25.80;42.70;;;;;;5047642;28;19933;-64
2021/01/26 13:39:43;;;;;;;;;;;25.70;43.00;;;;;;5022300;28;19925;-64
2021/01/26 13:42:10;;;;;;;;;;;25.50;43.20;;;;;;5047093;28;19933;-64
2021/01/26 13:44:39;;;;;;;;;;;25.40;43.10;;;;;;5038534;28;19928;-63
2021/01/26 13:47:05;;;;;;;;;;;25.30;43.20;;;;;;5050607;28;19925;-63
2021/01/26 13:49:32;;;;;;;;;;;25.20;43.20;;;;;;5041437;28;19931;-64
2021/01/26 13:51:59;;;;;;;;;;;25.10;43.50;;;;;;5044530;28;20436;-63
2021/01/26 13:54:25;;;;;;;;;;;25.00;43.70;;;;;;5041297;28;20024;-61
2021/01/26 13:56:56;;;;;;;;;;;24.90;43.40;;;;;;5045295;28;20321;-63
2021/01/26 13:59:22;;;;;;;;;;;24.90;43.80;;;;;;5041857;28;20296;-61
2021/01/26 14:01:49;;;;;;;;;;;24.90;43.90;;;;;;5046145;28;19935;-61
2021/01/26 14:04:16;;;;;;;;;;;24.80;43.70;;;;;;5042327;28;20003;-60
2021/01/26 14:06:43;;;;;;;;;;;24.70;43.90;;;;;;5045229;28;19932;-59
2021/01/26 14:09:13;;;;;;;;;;;24.60;43.70;;;;;;5041910;28;19936;-60
2021/01/26 14:11:39;;;;;;;;;;;24.60;43.70;;;;;;5039208;28;19932;-60
2021/01/26 14:14:05;;;;;;;;;;;24.50;43.50;;;;;;5049632;28;19948;-60
2021/01/26 14:16:31;;;;;;;;;;;24.40;43.60;;;;;;5040624;28;19933;-60
2021/01/26 14:18:58;;;;;;;;;;;24.30;43.60;;;;;;5047328;28;19925;-63
2021/01/26 14:21:24;;;;;;;;;;;24.20;44.60;;;;;;5040470;28;19925;-62
2021/01/26 14:23:51;;;;;;;;;;;24.20;45.00;;;;;;5047662;28;19933;-62
2021/01/26 14:26:17;;;;;;;;;;;24.10;45.20;;;;;;5036265;28;19924;-62
2021/01/26 14:28:44;;;;;;;;;;;24.10;45.00;;;;;;5047383;28;20013;-62
2021/01/26 14:31:11;;;;;;;;;;;24.10;45.00;;;;;;5038597;28;19924;-62
2021/01/26 14:33:38;;;;;;;;;;;24.00;45.10;;;;;;5043243;28;21145;-62